Aeroporto :
LOGIN :

Iscrizione | Disclaimer

   EN    FR    IT 

 










Sommario :    VFR   VFR Marginale   IFR   IFR Intensivo   IFR Molto Intensivo
Visibilità : 
Base nubi : 
>= 8 km
>= 3000ft
5 / 8 km
1000 / 3000 ft
1500m / 5 km
500 / 1000 ft
800 / 1500m
200 / 500 ft
< 800m
< 200 ft
Simboli :   Temporali  Nebbia  Neve Forte  Precipitazioni Forti  Vento > 20 kt
SIGMETs :   Varie  Temporali  Ghiacco  Turbolenza  Onda orograficha  Ceneri Vulcaniche







- Altitudine del aeroporto : 55 ft
- Codice IATA : DSA
- Carte del aeroporto


EGCN - Robin Hood Doncaster Sheffield

ULTIMO METAR :
  • 162250Z 18016KT 9999 FEW026 BKN035 16/11 Q1014

METARs OBSOLETI :
  • 162220Z 19017KT 9999 SCT035 16/11 Q1014
  • 162150Z 19016KT 9999 FEW035 SCT041 16/12 Q1014
  • 162120Z 18011KT 9999 FEW025 15/12 Q1014
  • 162050Z 17011KT CAVOK 15/12 Q1014
  • 162020Z 18012KT 9999 FEW038 SCT045 16/12 Q1014
  • 161950Z 20011KT 9999 BKN039 17/11 Q1014

TAF TAF EGCN
Valido dal 16 a 18 ore il 17 a 18 ore UTC


161700Z 1618/1718 19012KT 9999 SCT040
TEMPO 1618/1622 7000 SHRA
PROB30
TEMPO 1618/1621 4000 +SHRA
PROB30
TEMPO 1618/1715 20015G25KT
TEMPO 1700/1712 8000 BKN014
PROB30
TEMPO 1703/1715 RA BKN005
PROB30
TEMPO 1715/1718 8000 SHRA
Nessun NOTAM noto per questo aeroporto.
1 SIGMET conosciuto per la FIR London (EGTT) :
 
Forte onda orograficha
EGTT SIGMET 01 VALID 162010/162330 EGRR
EGTT LONDON FIR SEV MTW FCST WI N5444 W00114 - N5306 W00010 - N5156 W00445 - N5438 W00305 - N5444 W00114 FL030/180 STNR NC=



MetMap, La meteo Aeronautica in un colpo d'occhio ! - Copyright ORBIFLY Dicembre 2007 - Disclaimer

ORBIFLY MET'MAP TEAM :

Programmazione e sviluppo : Alexandra Zaïnal
Concezione e sviluppo : Baudouin d'Aumeries
Co-Programmazione e sviluppo : Marc-Olivier Méhu
Supporto tecnico e logistico : Manuel Goepfert
Aiuto per la traduzione : Arnaldo La Scala

Contatto : metmap@orbifly.com




FONTI E CREDITI :

   NOAA